Accueil
METAR-TAF:

METAR-TAF

Aéroports :

Aéroport international Ngurah Rai

Denpasar, Indonésie

latitude: 08-44-53S, longitude: 115-10-03E, altitude: 4 m

Observation

Le bulletin a été fait il y a 42 minutes, à 22:30 UTC
Vent 5 kt de nord
Température 24°C
Humidité 78%
Pression 1013 hPa
Visibilité 10 km ou plus
Nuages épars à une hauteur de 1600 ft

METAR: WADD 152230Z 01005KT 9999 SCT016 24/20 Q1013 NOSIG

Heure: 06:12 (23:12 UTC)

Prévision

Le bulletin a été fait il y a 6 heures et 12 minutes, à 17:00 UTC
Prévision valable du 15 à 18 UTC au 16 à 18 UTC
Vent 10 kt de est/sud-est
Visibilité 10 km ou plus
Nuages épars à une hauteur de 1600 ft

TAF: WADD 151700Z 1518/1618 12010KT 9999 SCT016

Observations et prévisions météorologiques de plus de 4000 aéroports (messages METAR et TAF).

Les stations disponibles sont représentées par des disques jaunes et rouges sur la carte.

Passer la souris dessus pour voir le nom de la station.

Cliquer dessus pour voir les observations et prévisions météorologiques.

Pour changer de carte: cliquez sur les boutons verts avec une croix noire pour zoomer, sur le bouton vert avec un tiret pour effectuer un zoom arrière, ou sur les flèches vertes pour les cartes adjacentes.


METAR-TAF: